sensor_id;sensor_type;location;lat;lon;timestamp;pressure;altitude;pressure_sealevel;temperature;humidity
41898;BME280;27576;53.366;-1.498;2023-05-09T00:00:03;99844.53;;;12.99;100.00
41898;BME280;27576;53.366;-1.498;2023-05-09T00:02:30;99813.41;;;12.81;100.00
41898;BME280;27576;53.366;-1.498;2023-05-09T00:04:59;99830.69;;;12.94;100.00
41898;BME280;27576;53.366;-1.498;2023-05-09T00:07:27;99832.41;;;12.95;100.00
41898;BME280;27576;53.366;-1.498;2023-05-09T00:09:53;99839.34;;;12.93;100.00
41898;BME280;27576;53.366;-1.498;2023-05-09T00:12:18;99796.19;;;12.61;100.00
41898;BME280;27576;53.366;-1.498;2023-05-09T00:14:44;99833.31;;;12.88;100.00
41898;BME280;27576;53.366;-1.498;2023-05-09T00:17:09;99813.47;;;12.71;100.00
41898;BME280;27576;53.366;-1.498;2023-05-09T00:19:39;99810.84;;;12.79;100.00
41898;BME280;27576;53.366;-1.498;2023-05-09T00:22:06;99806.56;;;12.73;100.00
41898;BME280;27576;53.366;-1.498;2023-05-09T00:24:33;99772.84;;;12.57;100.00
41898;BME280;27576;53.366;-1.498;2023-05-09T00:26:58;99793.56;;;12.73;100.00
41898;BME280;27576;53.366;-1.498;2023-05-09T00:29:23;99785.75;;;12.72;100.00
41898;BME280;27576;53.366;-1.498;2023-05-09T00:31:49;99764.16;;;12.59;100.00
41898;BME280;27576;53.366;-1.498;2023-05-09T00:34:14;99803.91;;;12.80;100.00
41898;BME280;27576;53.366;-1.498;2023-05-09T00:36:40;99769.34;;;12.61;100.00
41898;BME280;27576;53.366;-1.498;2023-05-09T00:39:05;99782.31;;;12.65;100.00
41898;BME280;27576;53.366;-1.498;2023-05-09T00:41:32;99799.59;;;12.72;100.00
41898;BME280;27576;53.366;-1.498;2023-05-09T00:43:57;99793.59;;;12.64;100.00
41898;BME280;27576;53.366;-1.498;2023-05-09T00:46:22;99793.56;;;12.67;100.00
41898;BME280;27576;53.366;-1.498;2023-05-09T00:48:48;99762.50;;;12.47;100.00
41898;BME280;27576;53.366;-1.498;2023-05-09T00:51:14;99765.97;;;12.48;100.00
41898;BME280;27576;53.366;-1.498;2023-05-09T00:53:39;99749.53;;;12.40;100.00
41898;BME280;27576;53.366;-1.498;2023-05-09T00:56:06;99759.06;;;12.42;100.00
41898;BME280;27576;53.366;-1.498;2023-05-09T00:58:32;99759.09;;;12.36;100.00
41898;BME280;27576;53.366;-1.498;2023-05-09T01:00:57;99785.88;;;12.47;100.00
41898;BME280;27576;53.366;-1.498;2023-05-09T01:03:24;99777.22;;;12.47;100.00
41898;BME280;27576;53.366;-1.498;2023-05-09T01:06:14;99775.50;;;12.44;100.00
41898;BME280;27576;53.366;-1.498;2023-05-09T01:08:54;99774.66;;;12.39;100.00
41898;BME280;27576;53.366;-1.498;2023-05-09T01:11:30;99689.19;;;11.87;100.00
41898;BME280;27576;53.366;-1.498;2023-05-09T01:14:24;99765.19;;;12.31;100.00
41898;BME280;27576;53.366;-1.498;2023-05-09T01:17:00;99744.47;;;12.18;100.00
41898;BME280;27576;53.366;-1.498;2023-05-09T01:19:52;99746.19;;;12.13;100.00
41898;BME280;27576;53.366;-1.498;2023-05-09T01:22:19;99748.81;;;12.09;100.00
41898;BME280;27576;53.366;-1.498;2023-05-09T01:27:21;99754.00;;;12.15;100.00
41898;BME280;27576;53.366;-1.498;2023-05-09T01:29:55;99731.53;;;12.01;100.00
41898;BME280;27576;53.366;-1.498;2023-05-09T01:32:23;99740.19;;;12.02;100.00
41898;BME280;27576;53.366;-1.498;2023-05-09T01:34:51;99741.91;;;12.01;100.00
41898;BME280;27576;53.366;-1.498;2023-05-09T01:37:18;99744.53;;;12.00;100.00
41898;BME280;27576;53.366;-1.498;2023-05-09T01:39:47;99741.94;;;11.97;100.00
41898;BME280;27576;53.366;-1.498;2023-05-09T01:42:18;99751.47;;;11.95;100.00
41898;BME280;27576;53.366;-1.498;2023-05-09T01:44:45;99712.53;;;11.75;100.00
41898;BME280;27576;53.366;-1.498;2023-05-09T01:47:11;99704.78;;;11.73;100.00
41898;BME280;27576;53.366;-1.498;2023-05-09T01:49:41;99735.03;;;11.90;100.00
41898;BME280;27576;53.366;-1.498;2023-05-09T01:52:10;99727.25;;;11.87;100.00
41898;BME280;27576;53.366;-1.498;2023-05-09T01:54:37;99722.91;;;11.78;100.00
41898;BME280;27576;53.366;-1.498;2023-05-09T01:57:05;99728.09;;;11.81;100.00
41898;BME280;27576;53.366;-1.498;2023-05-09T01:59:32;99734.16;;;11.82;100.00
41898;BME280;27576;53.366;-1.498;2023-05-09T02:01:59;99708.25;;;11.66;100.00
41898;BME280;27576;53.366;-1.498;2023-05-09T02:04:25;99727.25;;;11.74;100.00
41898;BME280;27576;53.366;-1.498;2023-05-09T02:06:52;99730.72;;;11.78;100.00
41898;BME280;27576;53.366;-1.498;2023-05-09T02:09:19;99700.50;;;11.63;100.00
41898;BME280;27576;53.366;-1.498;2023-05-09T02:11:45;99720.34;;;11.70;100.00
41898;BME280;27576;53.366;-1.498;2023-05-09T02:14:11;99697.91;;;11.60;100.00
41898;BME280;27576;53.366;-1.498;2023-05-09T02:16:37;99708.28;;;11.60;100.00
41898;BME280;27576;53.366;-1.498;2023-05-09T02:19:03;99725.53;;;11.76;100.00
41898;BME280;27576;53.366;-1.498;2023-05-09T02:21:29;99699.63;;;11.58;100.00
41898;BME280;27576;53.366;-1.498;2023-05-09T02:23:55;99723.81;;;11.71;100.00
41898;BME280;27576;53.366;-1.498;2023-05-09T02:26:21;99699.63;;;11.61;100.00
41898;BME280;27576;53.366;-1.498;2023-05-09T02:28:47;99695.31;;;11.63;100.00
41898;BME280;27576;53.366;-1.498;2023-05-09T02:31:15;99706.53;;;11.68;100.00
41898;BME280;27576;53.366;-1.498;2023-05-09T02:33:43;99709.97;;;11.73;100.00
41898;BME280;27576;53.366;-1.498;2023-05-09T02:36:11;99723.78;;;11.82;100.00
41898;BME280;27576;53.366;-1.498;2023-05-09T02:38:37;99721.22;;;11.85;100.00
41898;BME280;27576;53.366;-1.498;2023-05-09T02:41:03;99722.94;;;11.86;100.00
41898;BME280;27576;53.366;-1.498;2023-05-09T02:43:28;99714.28;;;11.85;100.00
41898;BME280;27576;53.366;-1.498;2023-05-09T02:45:53;99705.63;;;11.77;100.00
41898;BME280;27576;53.366;-1.498;2023-05-09T02:48:19;99725.53;;;11.89;100.00
41898;BME280;27576;53.366;-1.498;2023-05-09T02:50:44;99714.28;;;11.91;100.00
41898;BME280;27576;53.366;-1.498;2023-05-09T02:53:10;99694.38;;;11.78;100.00
41898;BME280;27576;53.366;-1.498;2023-05-09T02:55:35;99706.47;;;11.90;100.00
41898;BME280;27576;53.366;-1.498;2023-05-09T02:58:01;99702.16;;;11.86;100.00
41898;BME280;27576;53.366;-1.498;2023-05-09T03:00:26;99698.69;;;11.80;100.00
41898;BME280;27576;53.366;-1.498;2023-05-09T03:02:52;99702.16;;;11.95;100.00
41898;BME280;27576;53.366;-1.498;2023-05-09T03:05:17;99694.34;;;11.83;100.00
41898;BME280;27576;53.366;-1.498;2023-05-09T03:07:43;99709.94;;;11.92;100.00
41898;BME280;27576;53.366;-1.498;2023-05-09T03:10:09;99702.13;;;11.93;100.00
41898;BME280;27576;53.366;-1.498;2023-05-09T03:12:38;99707.31;;;11.96;100.00
41898;BME280;27576;53.366;-1.498;2023-05-09T03:15:07;99694.38;;;11.89;100.00
41898;BME280;27576;53.366;-1.498;2023-05-09T03:17:32;99677.06;;;11.78;100.00
41898;BME280;27576;53.366;-1.498;2023-05-09T03:19:58;99670.16;;;11.77;100.00
41898;BME280;27576;53.366;-1.498;2023-05-09T03:22:23;99673.59;;;11.83;100.00
41898;BME280;27576;53.366;-1.498;2023-05-09T03:24:49;99697.78;;;12.00;100.00
41898;BME280;27576;53.366;-1.498;2023-05-09T03:27:14;99689.16;;;11.93;100.00
41898;BME280;27576;53.366;-1.498;2023-05-09T03:29:40;99682.25;;;11.86;100.00
41898;BME280;27576;53.366;-1.498;2023-05-09T03:32:05;99712.50;;;11.99;100.00
41898;BME280;27576;53.366;-1.498;2023-05-09T03:34:30;99666.69;;;11.78;100.00
41898;BME280;27576;53.366;-1.498;2023-05-09T03:36:56;99664.97;;;11.79;100.00
41898;BME280;27576;53.366;-1.498;2023-05-09T03:39:21;99680.53;;;11.91;100.00
41898;BME280;27576;53.366;-1.498;2023-05-09T03:41:46;99673.59;;;11.89;100.00
41898;BME280;27576;53.366;-1.498;2023-05-09T03:44:12;99683.97;;;11.92;100.00
41898;BME280;27576;53.366;-1.498;2023-05-09T03:46:38;99696.91;;;12.01;100.00
41898;BME280;27576;53.366;-1.498;2023-05-09T03:49:03;99689.16;;;11.93;100.00
41898;BME280;27576;53.366;-1.498;2023-05-09T03:51:29;99705.56;;;12.01;100.00
41898;BME280;27576;53.366;-1.498;2023-05-09T03:53:54;99671.88;;;11.85;100.00
41898;BME280;27576;53.366;-1.498;2023-05-09T03:56:20;99683.09;;;11.93;100.00
41898;BME280;27576;53.366;-1.498;2023-05-09T03:58:46;99691.75;;;11.99;100.00
41898;BME280;27576;53.366;-1.498;2023-05-09T04:01:12;99683.97;;;11.90;100.00
41898;BME280;27576;53.366;-1.498;2023-05-09T04:03:37;99655.44;;;11.81;100.00
41898;BME280;27576;53.366;-1.498;2023-05-09T04:06:03;99700.38;;;12.00;100.00
41898;BME280;27576;53.366;-1.498;2023-05-09T04:08:29;99687.44;;;11.95;100.00
41898;BME280;27576;53.366;-1.498;2023-05-09T04:10:54;99668.44;;;11.84;100.00
41898;BME280;27576;53.366;-1.498;2023-05-09T04:13:20;99685.69;;;11.94;100.00
41898;BME280;27576;53.366;-1.498;2023-05-09T04:15:45;99683.97;;;11.92;100.00
41898;BME280;27576;53.366;-1.498;2023-05-09T04:18:10;99661.47;;;11.78;100.00
41898;BME280;27576;53.366;-1.498;2023-05-09T04:20:36;99691.75;;;11.95;100.00
41898;BME280;27576;53.366;-1.498;2023-05-09T04:23:01;99690.00;;;11.94;100.00
41898;BME280;27576;53.366;-1.498;2023-05-09T04:25:27;99654.59;;;11.67;100.00
41898;BME280;27576;53.366;-1.498;2023-05-09T04:27:53;99696.09;;;11.91;100.00
41898;BME280;27576;53.366;-1.498;2023-05-09T04:30:19;99696.09;;;11.90;100.00
41898;BME280;27576;53.366;-1.498;2023-05-09T04:32:45;99663.25;;;11.70;100.00
41898;BME280;27576;53.366;-1.498;2023-05-09T04:35:11;99677.91;;;11.82;100.00
41898;BME280;27576;53.366;-1.498;2023-05-09T04:37:37;99646.84;;;11.65;100.00
41898;BME280;27576;53.366;-1.498;2023-05-09T04:40:03;99658.94;;;11.72;100.00
41898;BME280;27576;53.366;-1.498;2023-05-09T04:42:29;99661.50;;;11.74;100.00
41898;BME280;27576;53.366;-1.498;2023-05-09T04:44:58;99688.31;;;11.90;100.00
41898;BME280;27576;53.366;-1.498;2023-05-09T04:47:23;99686.56;;;11.92;100.00
41898;BME280;27576;53.366;-1.498;2023-05-09T04:49:49;99688.28;;;11.93;100.00
41898;BME280;27576;53.366;-1.498;2023-05-09T04:52:14;99664.94;;;11.80;100.00
41898;BME280;27576;53.366;-1.498;2023-05-09T04:54:40;99681.38;;;11.89;100.00
41898;BME280;27576;53.366;-1.498;2023-05-09T04:57:05;99660.63;;;11.87;100.00
41898;BME280;27576;53.366;-1.498;2023-05-09T04:59:31;99677.03;;;11.97;100.00
41898;BME280;27576;53.366;-1.498;2023-05-09T05:01:56;99685.59;;;12.10;100.00
41898;BME280;27576;53.366;-1.498;2023-05-09T05:04:22;99676.09;;;12.15;100.00
41898;BME280;27576;53.366;-1.498;2023-05-09T05:06:47;99639.78;;;11.98;100.00
41898;BME280;27576;53.366;-1.498;2023-05-09T05:09:13;99656.19;;;12.09;100.00
41898;BME280;27576;53.366;-1.498;2023-05-09T05:11:38;99654.47;;;12.11;100.00
41898;BME280;27576;53.366;-1.498;2023-05-09T05:14:04;99639.75;;;12.06;100.00
41898;BME280;27576;53.366;-1.498;2023-05-09T05:16:29;99674.28;;;12.27;100.00
41898;BME280;27576;53.366;-1.498;2023-05-09T05:18:55;99642.31;;;12.16;100.00
41898;BME280;27576;53.366;-1.498;2023-05-09T05:21:21;99650.88;;;12.29;100.00
41898;BME280;27576;53.366;-1.498;2023-05-09T05:23:46;99665.53;;;12.41;100.00
41898;BME280;27576;53.366;-1.498;2023-05-09T05:26:11;99638.75;;;12.29;100.00
41898;BME280;27576;53.366;-1.498;2023-05-09T05:28:37;99655.13;;;12.41;100.00
41898;BME280;27576;53.366;-1.498;2023-05-09T05:31:02;99657.69;;;12.50;100.00
41898;BME280;27576;53.366;-1.498;2023-05-09T05:33:28;99673.19;;;12.62;100.00
41898;BME280;27576;53.366;-1.498;2023-05-09T05:35:53;99656.75;;;12.59;100.00
41898;BME280;27576;53.366;-1.498;2023-05-09T05:38:18;99623.06;;;12.43;100.00
41898;BME280;27576;53.366;-1.498;2023-05-09T05:40:44;99657.50;;;12.71;100.00
41898;BME280;27576;53.366;-1.498;2023-05-09T05:43:09;99666.13;;;12.81;100.00
41898;BME280;27576;53.366;-1.498;2023-05-09T05:45:34;99623.75;;;12.65;100.00
41898;BME280;27576;53.366;-1.498;2023-05-09T05:48:00;99638.38;;;12.77;100.00
41898;BME280;27576;53.366;-1.498;2023-05-09T05:50:26;99641.75;;;12.88;100.00
41898;BME280;27576;53.366;-1.498;2023-05-09T05:52:52;99644.28;;;12.96;100.00
41898;BME280;27576;53.366;-1.498;2023-05-09T05:55:18;99625.25;;;12.92;100.00
41898;BME280;27576;53.366;-1.498;2023-05-09T05:57:43;99607.94;;;12.88;100.00
41898;BME280;27576;53.366;-1.498;2023-05-09T06:00:09;99553.69;;;12.53;100.00
41898;BME280;27576;53.366;-1.498;2023-05-09T06:02:35;99639.00;;;13.07;100.00
41898;BME280;27576;53.366;-1.498;2023-05-09T06:05:01;99634.66;;;13.07;100.00
41898;BME280;27576;53.366;-1.498;2023-05-09T06:07:28;99614.00;;;12.93;100.00
41898;BME280;27576;53.366;-1.498;2023-05-09T06:09:53;99619.13;;;13.01;100.00
41898;BME280;27576;53.366;-1.498;2023-05-09T06:12:18;99604.41;;;12.98;100.00
41898;BME280;27576;53.366;-1.498;2023-05-09T06:14:44;99623.28;;;13.16;100.00
41898;BME280;27576;53.366;-1.498;2023-05-09T06:17:09;99629.28;;;13.29;100.00
41898;BME280;27576;53.366;-1.498;2023-05-09T06:19:35;99603.34;;;13.16;100.00
41898;BME280;27576;53.366;-1.498;2023-05-09T06:22:01;99622.22;;;13.38;100.00
41898;BME280;27576;53.366;-1.498;2023-05-09T06:24:27;99616.97;;;13.43;100.00
41898;BME280;27576;53.366;-1.498;2023-05-09T06:26:52;99622.88;;;13.56;100.00
41898;BME280;27576;53.366;-1.498;2023-05-09T06:29:18;99603.84;;;13.54;100.00
41898;BME280;27576;53.366;-1.498;2023-05-09T06:31:43;99620.16;;;13.68;100.00
41898;BME280;27576;53.366;-1.498;2023-05-09T06:34:08;99622.53;;;13.83;100.00
41898;BME280;27576;53.366;-1.498;2023-05-09T06:36:34;99639.72;;;13.99;100.00
41898;BME280;27576;53.366;-1.498;2023-05-09T06:38:59;99596.47;;;13.88;100.00
41898;BME280;27576;53.366;-1.498;2023-05-09T06:41:25;99607.72;;;13.87;100.00
41898;BME280;27576;53.366;-1.498;2023-05-09T06:43:51;99637.91;;;14.05;100.00
41898;BME280;27576;53.366;-1.498;2023-05-09T06:46:16;99590.53;;;13.77;100.00
41898;BME280;27576;53.366;-1.498;2023-05-09T06:48:41;99622.50;;;13.88;100.00
41898;BME280;27576;53.366;-1.498;2023-05-09T06:51:07;99639.72;;;13.99;100.00
41898;BME280;27576;53.366;-1.498;2023-05-09T06:53:33;99654.13;;;14.22;100.00
41898;BME280;27576;53.366;-1.498;2023-05-09T06:55:58;99652.22;;;14.36;100.00
41898;BME280;27576;53.366;-1.498;2023-05-09T06:58:24;99648.44;;;14.57;100.00
41898;BME280;27576;53.366;-1.498;2023-05-09T07:00:51;99637.69;;;14.77;100.00
41898;BME280;27576;53.366;-1.498;2023-05-09T07:03:17;99651.28;;;14.96;100.00
41898;BME280;27576;53.366;-1.498;2023-05-09T07:05:43;99651.28;;;14.96;100.00
41898;BME280;27576;53.366;-1.498;2023-05-09T07:08:09;99635.06;;;14.79;100.00
41898;BME280;27576;53.366;-1.498;2023-05-09T07:10:35;99651.66;;;14.75;100.00
41898;BME280;27576;53.366;-1.498;2023-05-09T07:13:00;99637.94;;;14.62;100.00
41898;BME280;27576;53.366;-1.498;2023-05-09T07:15:26;99645.81;;;14.59;100.00
41898;BME280;27576;53.366;-1.498;2023-05-09T07:17:51;99632.09;;;14.44;100.00
41898;BME280;27576;53.366;-1.498;2023-05-09T07:20:17;99638.25;;;14.40;100.00
41898;BME280;27576;53.366;-1.498;2023-05-09T07:22:42;99648.59;;;14.46;100.00
41898;BME280;27576;53.366;-1.498;2023-05-09T07:25:08;99667.66;;;14.50;100.00
41898;BME280;27576;53.366;-1.498;2023-05-09T07:27:34;99640.03;;;14.37;100.00
41898;BME280;27576;53.366;-1.498;2023-05-09T07:30:00;99660.72;;;14.46;100.00
41898;BME280;27576;53.366;-1.498;2023-05-09T07:32:25;99664.28;;;14.43;100.00
41898;BME280;27576;53.366;-1.498;2023-05-09T07:34:53;99642.75;;;14.31;100.00
41898;BME280;27576;53.366;-1.498;2023-05-09T07:37:18;99646.28;;;14.27;100.00
41898;BME280;27576;53.366;-1.498;2023-05-09T07:39:44;99626.41;;;14.19;100.00
41898;BME280;27576;53.366;-1.498;2023-05-09T07:42:12;99657.31;;;14.44;100.00
41898;BME280;27576;53.366;-1.498;2023-05-09T07:44:37;99650.31;;;14.51;100.00
41898;BME280;27576;53.366;-1.498;2023-05-09T07:47:03;99639.47;;;14.73;100.00
41898;BME280;27576;53.366;-1.498;2023-05-09T07:49:30;99639.13;;;14.95;100.00
41898;BME280;27576;53.366;-1.498;2023-05-09T07:51:55;99655.38;;;15.11;100.00
41898;BME280;27576;53.366;-1.498;2023-05-09T07:54:21;99660.50;;;15.15;100.00
41898;BME280;27576;53.366;-1.498;2023-05-09T07:56:47;99643.09;;;15.16;100.00
41898;BME280;27576;53.366;-1.498;2023-05-09T07:59:12;99657.69;;;15.28;100.00
41898;BME280;27576;53.366;-1.498;2023-05-09T08:01:38;99654.06;;;15.35;100.00
41898;BME280;27576;53.366;-1.498;2023-05-09T08:04:03;99616.09;;;15.18;100.00
41898;BME280;27576;53.366;-1.498;2023-05-09T08:06:31;99641.78;;;15.40;100.00
41898;BME280;27576;53.366;-1.498;2023-05-09T08:08:56;99636.50;;;15.43;100.00
41898;BME280;27576;53.366;-1.498;2023-05-09T08:11:22;99625.16;;;15.44;100.00
41898;BME280;27576;53.366;-1.498;2023-05-09T08:13:47;99643.09;;;15.62;100.00
41898;BME280;27576;53.366;-1.498;2023-05-09T08:16:13;99634.34;;;15.63;100.00
41898;BME280;27576;53.366;-1.498;2023-05-09T08:18:38;99623.31;;;15.51;100.00
41898;BME280;27576;53.366;-1.498;2023-05-09T08:21:03;99634.44;;;15.60;100.00
41898;BME280;27576;53.366;-1.498;2023-05-09T08:23:29;99616.97;;;15.62;100.00
41898;BME280;27576;53.366;-1.498;2023-05-09T08:25:55;99628.75;;;15.85;100.00
41898;BME280;27576;53.366;-1.498;2023-05-09T08:28:20;99632.63;;;16.07;100.00
41898;BME280;27576;53.366;-1.498;2023-05-09T08:30:50;99605.84;;;15.96;100.00
41898;BME280;27576;53.366;-1.498;2023-05-09T08:33:16;99612.34;;;16.17;100.00
41898;BME280;27576;53.366;-1.498;2023-05-09T08:35:41;99623.13;;;16.40;100.00
41898;BME280;27576;53.366;-1.498;2023-05-09T08:38:07;99594.31;;;16.42;100.00
41898;BME280;27576;53.366;-1.498;2023-05-09T08:40:36;99621.63;;;16.67;100.00
41898;BME280;27576;53.366;-1.498;2023-05-09T08:43:06;99617.88;;;16.78;100.00
41898;BME280;27576;53.366;-1.498;2023-05-09T08:45:35;99600.34;;;16.81;100.00
41898;BME280;27576;53.366;-1.498;2023-05-09T08:48:04;99613.84;;;17.00;100.00
41898;BME280;27576;53.366;-1.498;2023-05-09T08:50:31;99600.78;;;16.99;99.92
41898;BME280;27576;53.366;-1.498;2023-05-09T08:52:57;99602.31;;;17.07;99.83
41898;BME280;27576;53.366;-1.498;2023-05-09T08:55:22;99615.13;;;17.16;99.33
41898;BME280;27576;53.366;-1.498;2023-05-09T08:57:48;99622.59;;;17.32;100.00
41898;BME280;27576;53.366;-1.498;2023-05-09T09:00:14;99603.03;;;17.45;100.00
41898;BME280;27576;53.366;-1.498;2023-05-09T09:02:41;99635.16;;;17.83;97.01
41898;BME280;27576;53.366;-1.498;2023-05-09T09:05:08;99617.19;;;18.00;100.00
41898;BME280;27576;53.366;-1.498;2023-05-09T09:07:35;99597.47;;;18.15;98.79
41898;BME280;27576;53.366;-1.498;2023-05-09T09:10:03;99611.25;;;18.22;94.27
41898;BME280;27576;53.366;-1.498;2023-05-09T09:12:28;99626.53;;;18.07;94.40
41898;BME280;27576;53.366;-1.498;2023-05-09T09:14:55;99615.09;;;17.82;94.18
41898;BME280;27576;53.366;-1.498;2023-05-09T09:17:24;99628.13;;;17.85;93.67
41898;BME280;27576;53.366;-1.498;2023-05-09T09:19:55;99612.31;;;17.55;93.88
41898;BME280;27576;53.366;-1.498;2023-05-09T09:22:23;99609.97;;;17.46;95.53
41898;BME280;27576;53.366;-1.498;2023-05-09T09:24:51;99602.69;;;17.26;95.46
41898;BME280;27576;53.366;-1.498;2023-05-09T09:27:17;99592.63;;;17.09;95.90
41898;BME280;27576;53.366;-1.498;2023-05-09T09:29:43;99610.09;;;17.10;95.98
41898;BME280;27576;53.366;-1.498;2023-05-09T09:32:08;99597.66;;;16.86;97.11
41898;BME280;27576;53.366;-1.498;2023-05-09T09:34:34;99620.97;;;16.93;96.23
41898;BME280;27576;53.366;-1.498;2023-05-09T09:36:59;99598.19;;;16.97;100.00
41898;BME280;27576;53.366;-1.498;2023-05-09T09:39:24;99611.03;;;17.39;99.79
41898;BME280;27576;53.366;-1.498;2023-05-09T09:41:50;99596.69;;;17.52;95.80
41898;BME280;27576;53.366;-1.498;2023-05-09T09:44:17;99598.59;;;17.78;98.53
41898;BME280;27576;53.366;-1.498;2023-05-09T09:46:45;99597.59;;;18.12;99.02
41898;BME280;27576;53.366;-1.498;2023-05-09T09:49:15;99564.38;;;18.11;93.53
41898;BME280;27576;53.366;-1.498;2023-05-09T09:51:41;99591.09;;;18.24;93.79
41898;BME280;27576;53.366;-1.498;2023-05-09T09:54:08;99602.22;;;18.32;89.26
41898;BME280;27576;53.366;-1.498;2023-05-09T09:56:41;99573.16;;;18.10;87.07
41898;BME280;27576;53.366;-1.498;2023-05-09T09:59:12;99578.84;;;17.96;87.49
41898;BME280;27576;53.366;-1.498;2023-05-09T10:01:57;99589.19;;;18.01;87.11
41898;BME280;27576;53.366;-1.498;2023-05-09T10:04:23;99565.63;;;17.99;87.40
41898;BME280;27576;53.366;-1.498;2023-05-09T10:06:59;99586.00;;;18.46;86.85
41898;BME280;27576;53.366;-1.498;2023-05-09T10:09:26;99585.81;;;18.78;85.16
41898;BME280;27576;53.366;-1.498;2023-05-09T10:11:53;99569.44;;;18.97;87.55
41898;BME280;27576;53.366;-1.498;2023-05-09T10:14:21;99587.84;;;19.22;84.06
41898;BME280;27576;53.366;-1.498;2023-05-09T10:16:48;99585.28;;;19.44;83.48
41898;BME280;27576;53.366;-1.498;2023-05-09T10:19:17;99584.47;;;19.67;84.00
41898;BME280;27576;53.366;-1.498;2023-05-09T10:21:48;99578.38;;;19.88;83.80
41898;BME280;27576;53.366;-1.498;2023-05-09T10:24:17;99578.38;;;19.88;81.75
41898;BME280;27576;53.366;-1.498;2023-05-09T10:26:48;99546.00;;;19.64;84.58
41898;BME280;27576;53.366;-1.498;2023-05-09T10:29:15;99577.50;;;19.66;85.39
41898;BME280;27576;53.366;-1.498;2023-05-09T10:31:51;99566.81;;;19.45;85.31
41898;BME280;27576;53.366;-1.498;2023-05-09T10:34:20;99576.06;;;19.32;81.34
41898;BME280;27576;53.366;-1.498;2023-05-09T10:36:47;99566.50;;;19.06;85.85
41898;BME280;27576;53.366;-1.498;2023-05-09T10:39:13;99549.03;;;18.80;86.16
41898;BME280;27576;53.366;-1.498;2023-05-09T10:41:39;99549.47;;;18.66;85.67
41898;BME280;27576;53.366;-1.498;2023-05-09T10:44:05;99563.50;;;18.65;86.25
41898;BME280;27576;53.366;-1.498;2023-05-09T10:46:30;99564.06;;;18.48;87.44
41898;BME280;27576;53.366;-1.498;2023-05-09T10:48:56;99558.91;;;18.45;86.61
41898;BME280;27576;53.366;-1.498;2023-05-09T10:51:22;99529.88;;;18.25;88.49
41898;BME280;27576;53.366;-1.498;2023-05-09T10:53:49;99550.75;;;18.28;87.80
41898;BME280;27576;53.366;-1.498;2023-05-09T10:56:22;99544.25;;;18.11;87.45
41898;BME280;27576;53.366;-1.498;2023-05-09T10:58:48;99554.91;;;18.07;89.99
41898;BME280;27576;53.366;-1.498;2023-05-09T11:01:13;99547.34;;;17.98;91.34
41898;BME280;27576;53.366;-1.498;2023-05-09T11:03:54;99531.53;;;18.01;90.79
41898;BME280;27576;53.366;-1.498;2023-05-09T11:06:50;99548.91;;;18.31;89.85
41898;BME280;27576;53.366;-1.498;2023-05-09T11:09:33;99532.78;;;18.42;89.88
41898;BME280;27576;53.366;-1.498;2023-05-09T11:14:30;99541.56;;;18.68;87.33
41898;BME280;27576;53.366;-1.498;2023-05-09T11:17:04;99528.13;;;18.77;88.01
41898;BME280;27576;53.366;-1.498;2023-05-09T11:22:19;99532.09;;;19.37;83.25
41898;BME280;27576;53.366;-1.498;2023-05-09T11:24:58;99486.47;;;19.40;85.65
41898;BME280;27576;53.366;-1.498;2023-05-09T11:27:26;99513.81;;;19.81;85.23
41898;BME280;27576;53.366;-1.498;2023-05-09T11:29:54;99519.56;;;19.91;81.91
41898;BME280;27576;53.366;-1.498;2023-05-09T11:32:21;99496.88;;;19.66;82.12
41898;BME280;27576;53.366;-1.498;2023-05-09T11:34:48;99504.47;;;19.50;81.73
41898;BME280;27576;53.366;-1.498;2023-05-09T11:37:17;99518.94;;;19.37;81.68
41898;BME280;27576;53.366;-1.498;2023-05-09T11:39:57;99522.09;;;19.23;84.13
41898;BME280;27576;53.366;-1.498;2023-05-09T11:42:27;99524.53;;;19.04;83.71
41898;BME280;27576;53.366;-1.498;2023-05-09T11:44:54;99518.03;;;18.91;86.14
41898;BME280;27576;53.366;-1.498;2023-05-09T11:47:20;99519.31;;;18.79;85.16
41898;BME280;27576;53.366;-1.498;2023-05-09T11:49:47;99492.41;;;18.46;83.23
41898;BME280;27576;53.366;-1.498;2023-05-09T11:52:12;99517.72;;;18.49;83.12
41898;BME280;27576;53.366;-1.498;2023-05-09T11:54:38;99504.16;;;18.36;86.60
41898;BME280;27576;53.366;-1.498;2023-05-09T11:57:04;99520.25;;;18.50;86.32
41898;BME280;27576;53.366;-1.498;2023-05-09T11:59:30;99507.91;;;18.54;88.39
41898;BME280;27576;53.366;-1.498;2023-05-09T12:02:01;99515.34;;;18.66;85.02
41898;BME280;27576;53.366;-1.498;2023-05-09T12:04:29;99505.09;;;18.85;85.77
41898;BME280;27576;53.366;-1.498;2023-05-09T12:06:57;99448.97;;;18.89;87.23
41898;BME280;27576;53.366;-1.498;2023-05-09T12:09:30;99495.53;;;19.54;83.68
41898;BME280;27576;53.366;-1.498;2023-05-09T12:11:57;99515.41;;;19.85;85.79
41898;BME280;27576;53.366;-1.498;2023-05-09T12:14:28;99478.00;;;19.78;82.43
41898;BME280;27576;53.366;-1.498;2023-05-09T12:16:54;99509.16;;;20.09;78.77
41898;BME280;27576;53.366;-1.498;2023-05-09T12:19:20;99501.06;;;20.36;77.20
41898;BME280;27576;53.366;-1.498;2023-05-09T12:21:46;99504.91;;;20.70;71.71
41898;BME280;27576;53.366;-1.498;2023-05-09T12:24:11;99497.78;;;20.92;70.25
41898;BME280;27576;53.366;-1.498;2023-05-09T12:26:38;99453.97;;;20.71;66.12
41898;BME280;27576;53.366;-1.498;2023-05-09T12:29:04;99464.63;;;20.88;70.44
41898;BME280;27576;53.366;-1.498;2023-05-09T12:31:30;99488.06;;;21.13;68.51
41898;BME280;27576;53.366;-1.498;2023-05-09T12:33:55;99473.63;;;21.22;65.28
41898;BME280;27576;53.366;-1.498;2023-05-09T12:36:21;99480.19;;;21.32;65.53
41898;BME280;27576;53.366;-1.498;2023-05-09T12:38:53;99481.69;;;21.38;61.75
41898;BME280;27576;53.366;-1.498;2023-05-09T12:41:19;99471.44;;;21.31;64.23
41898;BME280;27576;53.366;-1.498;2023-05-09T12:43:47;99453.19;;;21.27;63.20
41898;BME280;27576;53.366;-1.498;2023-05-09T12:46:16;99476.44;;;21.38;59.60
41898;BME280;27576;53.366;-1.498;2023-05-09T12:48:42;99475.00;;;21.49;64.59